ADDS TAF Data INFO

IDs: Format: Raw Decoded Include METARs

Data at: 0020 UTC 26 Jan 2015

Region: TOP
KATL 252332Z 2600/2706 19011KT P6SM SCT120
  FM260200 20006KT P6SM -RA SCT035 OVC050
  FM260500 24007KT P6SM -RA OVC025
  FM260900 27008KT P6SM -RA OVC012
  FM261500 31012G25KT P6SM BKN025
  FM261800 31016G26KT P6SM BKN080
  FM270000 32012KT P6SM BKN250


KBOS 252325Z 2600/2706 29009KT P6SM OVC250
  FM260500 33009KT P6SM SKC
  FM261100 01007KT P6SM BKN110
  FM261500 06009KT P6SM BKN035
  FM261800 06013KT P6SM OVC025
  FM262200 05017KT 2SM -SN OVC010
  FM270000 05020G29KT 1/2SM SN BLSN OVC010


KBWI 252320Z 2600/2706 00000KT P6SM BKN070
  FM260200 06006KT 3SM -RA OVC050
  FM260500 07009KT 2SM -RASN OVC025
  FM260800 07010KT 1SM -SNRA OVC020
  FM261100 07011G19KT 1SM -SN OVC010
  FM261700 05010KT 2SM -RASN OVC008
  FM262000 04010G18KT 2SM -SNRA OVC008
  FM262300 03012KT 2SM -SN OVC008
  FM270500 35010KT 3SM -SN OVC008


KCLE 252325Z 2600/2706 03012KT 2SM -SN SCT012 OVC025
  TEMPO 2600/2602 1 1/2SM -SN OVC012
  FM260200 03012KT 2SM -SN OVC012
  TEMPO 2602/2606 1SM -SN OVC012
  FM261000 03012KT 4SM -SN OVC010
  TEMPO 2612/2616 OVC008
  FM261600 36012KT 6SM -SN OVC015
  FM262000 36012KT P6SM OVC025
  FM270200 36007KT P6SM OVC015


KCLT 252339Z 2600/2624 19006KT P6SM FEW200
  FM260300 18006KT P6SM BKN100 OVC200
  FM261000 18004KT P6SM OVC040
  PROB30 2610/2614 4SM -RA BKN010 OVC030
  FM261400 28005KT P6SM SCT015 OVC040
  FM262100 30010KT P6SM BKN045


KCVG 252330Z 2600/2706 08003KT 5SM -RA BR OVC025
  TEMPO 2603/2605 01011G21KT 1SM -SNRA OVC005
  FM260500 36015G22KT 2SM -SN OVC005
  FM260800 34012G20KT P6SM OVC015
  FM261200 34012KT P6SM OVC015
  FM261700 32010KT P6SM SCT018 BKN250
  FM262200 34005KT P6SM OVC100


KDCA 252320Z 2600/2624 VRB03KT P6SM BKN100
  FM260500 08005KT 3SM -RA OVC050
  FM261000 07009KT 2SM -RA OVC015
  FM261100 07009KT 1SM -RASN OVC015
  FM261700 05009KT 2SM -RA OVC008
  FM262000 04009KT 2SM -RASN OVC008
  FM262300 02010KT 2SM -SN OVC008


KDEN 252339Z 2600/2706 27007KT P6SM FEW100 BKN220
  FM260200 22010KT P6SM SCT220
  FM260500 21012KT P6SM FEW220
  FM261800 18008KT P6SM SKC
  FM270200 22010KT P6SM SKC


KDFW 252320Z 2600/2706 32013KT P6SM SKC
  FM260300 29005KT P6SM SKC
  FM261800 26010KT P6SM SCT300


KDTW 252330Z 2600/2706 04012KT P6SM BKN060
  FM260600 02008KT P6SM BKN150
  FM270000 07004KT P6SM SCT250


KEWR 252357Z 2600/2706 36009KT P6SM BKN080
  FM260500 03010KT P6SM BKN040
  FM261100 04013KT P6SM BKN030
  TEMPO 2611/2615 3SM -SN BR BKN015
  FM261500 04015G22KT 1SM -SN BR BKN007
  FM261800 04015G22KT 3/4SM -SN BR BKN007
  FM262300 02018G28KT 1/2SM SN FZFG VV005
  FM270200 01023G38KT 1/2SM SN FZFG VV005


KFLL 252340Z 2600/2624 VRB04KT P6SM BKN250
  FM261300 25012KT P6SM BKN050
  FM261500 27015G30KT P6SM OVC050


KIAD 252320Z 2600/2706 VRB03KT P6SM BKN060
  FM260200 09005KT 5SM -RA OVC040
  FM260500 10007KT 3SM -RA OVC020
  FM260800 10008KT 2SM -RASN OVC025
  FM261100 08010KT 1SM -SNRA OVC010
  FM261400 07009KT 3/4SM -SN OVC008
  FM261700 05008KT 1SM -SNRA OVC003
  FM262000 03008KT 1SM -SN OVC008
  FM262300 01009KT 2SM -SN OVC008


KIAH 252320Z 2600/2706 29008KT P6SM SCT250 WS015/34045KT
  FM261600 30007KT P6SM SCT250
  FM270100 VRB04KT P6SM SKC


KJFK 252357Z 2600/2706 36010KT P6SM BKN080
  FM260600 03009KT P6SM BKN040
  FM261200 06014KT P6SM BKN030
  TEMPO 2612/2615 3SM -SN BR BKN015
  FM261500 06016G24KT 1SM -SN BR BKN007
  FM261800 04020G30KT 3/4SM -SN BR BKN007
  FM262200 02020G30KT 1/2SM SN FZFG VV005
  FM270200 01025G40KT 1/2SM SN FZFG VV005


KLAS 252333Z 2600/2624 VRB05KT P6SM SKC
  FM260300 21007KT P6SM FEW250
  FM260800 21007KT P6SM BKN250
  FM261700 VRB05KT P6SM SCT150 OVC200
  FM262000 15006KT P6SM FEW100 BKN150 OVC200


KLAX 252348Z 2600/2706 32005KT P6SM OVC150
  FM260300 VRB03KT P6SM OVC150
  FM261500 05005KT P6SM OVC120
  FM261900 12006KT P6SM VCSH BKN080 OVC120
  FM262300 21008KT P6SM -RA BKN040 OVC080


KLGA 252357Z 2600/2624 35010KT P6SM BKN080
  FM260400 03009KT P6SM BKN040
  FM261200 06015G21KT P6SM BKN030
  TEMPO 2613/2615 3SM -SN BR BKN015
  FM261500 06020G30KT 1SM -SN BR BKN007
  FM261800 04020G30KT 3/4SM -SN BR BKN007
  FM262200 02020G30KT 1/2SM SN FZFG VV005


KMCO 252349Z 2600/2624 22005KT P6SM SCT100
  FM260900 22009KT P6SM VCSH BKN030 BKN050
  FM261500 26015G22KT P6SM SCT030


KMDW 252332Z 2600/2624 03012G16KT P6SM BKN040
  FM260200 03009KT P6SM SKC
  FM260700 VRB04KT P6SM BKN150
  FM261900 17005KT P6SM OVC025
  PROB30 2620/2624 2SM -SN OVC015


KMEM 252330Z 2600/2624 29012G20KT P6SM VCSH BKN060
  FM260300 33014G22KT P6SM BKN018 OVC040
  FM261100 34010KT P6SM BKN022
  FM261700 31008KT P6SM SCT040
  FM262000 24008KT P6SM FEW100


KMIA 252340Z 2600/2624 VRB04KT P6SM BKN250
  FM261300 24012KT P6SM BKN050
  FM261500 26015G30KT P6SM OVC050


KMSP 252343Z 2600/2706 13004KT P6SM SCT250
  FM260600 17007KT P6SM OVC020
  FM260900 19009KT 5SM -SN OVC015
  PROB30 2611/2614 3SM -FZDZ BR OVC010
  FM261500 25008KT 6SM HZ OVC020
  FM262100 30010KT P6SM BKN035


KORD 252332Z 2600/2706 03012G16KT P6SM BKN040
  FM260200 03009KT P6SM SKC
  FM260700 VRB04KT P6SM BKN150
  FM261900 17005KT P6SM OVC025
  PROB30 2620/2702 2SM -SN OVC015


KPDX 252342Z 2600/2624 VRB03KT P6SM SCT003 BKN250
  FM260400 VRB03KT 2SM BR OVC007
  FM260500 00000KT 1/4SM FG VV002
  FM262030 VRB03KT 1/2SM FG BKN002
  FM262100 00000KT P6SM SCT003 SCT250


KPHL 252330Z 2600/2706 36008KT P6SM BKN040
  FM260400 03010KT 5SM -SN OVC030
  FM260600 05012KT 2SM -SN OVC015
  FM260900 06012G20KT 3/4SM -SN OVC009
  FM261500 05014G24KT 2SM -SN OVC009
  FM262100 04016G26KT 1SM -SN OVC007
  FM270300 01016G26KT 1/2SM SN OVC005


KPHX 252320Z 2600/2624 VRB04KT P6SM SCT180 BKN250
  FM260800 09004KT P6SM FEW120 SCT180 BKN250
  FM261300 13006KT P6SM SCT100 BKN150 OVC200
  FM262200 25004KT P6SM VCSH SCT080 BKN100 OVC150


KPIT 252334Z 2600/2706 05008KT 1SM -SN OVC007
  TEMPO 2600/2604 1/2SM SN OVC003
  FM261000 04007KT 2SM -SN BR OVC007
  FM262100 01008KT 3SM -SHSN OVC010


KSAN 252334Z 2600/2706 VRB04KT P6SM BKN150
  FM261600 15009KT P6SM VCSH BKN060 OVC100
  FM262000 VRB06KT P6SM -SHRA BKN040 OVC100


KSEA 252342Z 2600/2706 VRB03KT P6SM SCT150 BKN200
  FM260800 11003KT 3SM BR SCT003
  FM261000 12003KT 1/4SM FG VV002
  FM261600 15004KT 1 1/2SM BR BKN005
  FM261800 17006KT P6SM SCT012
  FM262000 19006KT P6SM SKC
  FM270400 17005KT P6SM SCT020 BKN200


KSFO 252320Z 2600/2706 31005KT P6SM SKC
  FM260500 VRB03KT P6SM FEW250
  FM261500 VRB03KT 6SM BR FEW010 SCT250
  FM262000 35004KT 6SM HZ BKN250


KSLC 252320Z 2600/2706 34006KT P6SM FEW200
  FM260300 16006KT 6SM HZ SKC
  FM261800 32005KT 6SM HZ SKC


KSTL 252320Z 2600/2706 35015G25KT 3SM -SN BR OVC006
  FM260100 33015G25KT P6SM OVC012
  FM260800 32008KT P6SM OVC010
  FM261700 20006KT P6SM SCT020 BKN080
  FM270100 32007KT P6SM BKN025


KTPA 252340Z 2600/2624 20006KT P6SM BKN250
  FM260200 20006KT P6SM SCT050 BKN250
  FM260600 21010KT P6SM VCSH SCT020 OVC050
  FM260900 24011G17KT P6SM VCSH SCT015 OVC035
  TEMPO 2609/2612 4SM SHRA BKN015
  FM261200 30014G22KT P6SM VCSH SCT015 OVC035
  TEMPO 2612/2615 BKN015
  FM261500 30020G30KT P6SM FEW020 BKN035
  FM262000 30020G30KT P6SM SCT035



Page loaded:  00:20 UTC  |   04:20 PM Pacific  |   05:20 PM Mountain  |   06:20 PM Central  |   07:20 PM Eastern

 

ADVISORIES

FORECASTS

FORECASTS

OBSERVATIONS

USER TOOLS

ABOUT US